Time;durP1;ratioP1;P1;durP2;ratioP2;P2;SDS_P1;SDS_P2;PMS_P1;PMS_P2;Temp;Humidity;BMP_temperature;BMP_pressure;BME280_temperature;BME280_humidity;BME280_pressure;Samples;Min_cycle;Max_cycle;Signal;HPM_P1;HPM_P2
2023/01/06 00:02:22;;;;;;;5.55;2.83;;;;;;;18.87;50.03;101635.41;5024497;28;20049;-59
2023/01/06 00:04:47;;;;;;;4.55;2.40;;;;;;;18.86;49.93;101637.25;5024048;28;20037;-58
2023/01/06 00:07:12;;;;;;;4.95;2.58;;;;;;;18.86;50.23;101636.38;5024620;28;20049;-59
2023/01/06 00:09:37;;;;;;;4.78;2.63;;;;;;;18.85;50.23;101635.53;5027890;28;20049;-58
2023/01/06 00:12:03;;;;;;;4.75;2.53;;;;;;;18.85;49.89;101632.84;5028058;28;20030;-59
2023/01/06 00:14:28;;;;;;;6.20;2.40;;;;;;;18.75;50.11;101613.19;5027980;28;20029;-58
2023/01/06 00:16:53;;;;;;;4.28;2.35;;;;;;;18.84;50.04;101639.25;5027953;28;20026;-58
2023/01/06 00:19:19;;;;;;;4.85;2.85;;;;;;;18.84;50.17;101635.69;5027824;28;20034;-58
2023/01/06 00:21:44;;;;;;;5.13;3.00;;;;;;;18.81;49.93;101622.53;5027071;28;20085;-58
2023/01/06 00:24:10;;;;;;;3.67;2.65;;;;;;;18.82;50.24;101622.38;5027057;28;20033;-59
2023/01/06 00:26:36;;;;;;;3.47;2.42;;;;;;;18.82;50.29;101629.59;5027754;28;20025;-58
2023/01/06 00:29:01;;;;;;;5.32;2.72;;;;;;;18.82;50.23;101629.59;5028002;28;20521;-58
2023/01/06 00:31:26;;;;;;;4.13;2.60;;;;;;;18.81;50.27;101619.81;5027648;28;20029;-59
2023/01/06 00:33:54;;;;;;;4.95;2.97;;;;;;;18.80;49.94;101620.84;5027210;28;20046;-58
2023/01/06 00:36:20;;;;;;;4.60;2.50;;;;;;;18.78;49.98;101615.59;5027577;28;20041;-58
2023/01/06 00:38:47;;;;;;;4.60;2.80;;;;;;;18.77;49.99;101616.56;5027230;28;20088;-58
2023/01/06 00:44:16;;;;;;;3.95;2.30;;;;;;;18.79;50.31;101624.53;4966553;29;20128;-59
2023/01/06 00:46:42;;;;;;;3.63;2.40;;;;;;;18.78;50.21;101617.47;4966573;29;20027;-58
2023/01/06 00:49:07;;;;;;;4.60;2.28;;;;;;;18.77;49.93;101623.81;4966460;29;20070;-58
2023/01/06 00:51:34;;;;;;;3.67;2.63;;;;;;;18.71;50.12;101614.50;4966570;29;20063;-57
2023/01/06 00:54:00;;;;;;;4.75;2.83;;;;;;;18.76;50.26;101627.50;4966577;29;20039;-58
2023/01/06 00:56:25;;;;;;;4.80;2.63;;;;;;;18.76;50.04;101632.91;4966231;29;20110;-58
2023/01/06 00:58:51;;;;;;;3.92;2.53;;;;;;;18.75;50.11;101618.59;4966421;29;20179;-58
2023/01/06 01:01:16;;;;;;;3.65;2.30;;;;;;;18.74;50.38;101624.97;4966181;29;20047;-58
2023/01/06 01:03:41;;;;;;;3.42;2.00;;;;;;;18.73;50.18;101626.84;4966371;29;20023;-58
2023/01/06 01:06:08;;;;;;;4.43;2.38;;;;;;;18.72;50.10;101622.41;4965802;29;20054;-58
2023/01/06 01:08:33;;;;;;;4.50;2.17;;;;;;;18.65;49.83;101612.38;4964852;29;20527;-59
2023/01/06 01:11:08;;;;;;;4.05;2.17;;;;;;;18.72;50.23;101638.59;4946880;29;20032;-59
2023/01/06 01:13:33;;;;;;;3.70;2.17;;;;;;;18.71;50.19;101636.06;4946756;29;20031;-59
2023/01/06 01:16:05;;;;;;;3.35;2.22;;;;;;;18.70;50.32;101634.34;5005109;28;20076;-59
2023/01/06 01:18:31;;;;;;;3.28;2.17;;;;;;;18.70;50.08;101627.13;5026806;28;20014;-58
2023/01/06 01:20:56;;;;;;;3.67;2.05;;;;;;;18.70;49.83;101623.59;5026302;28;20076;-59
2023/01/06 01:23:21;;;;;;;2.90;1.90;;;;;;;18.69;50.32;101621.84;5026474;28;20032;-59
2023/01/06 01:25:47;;;;;;;4.45;2.35;;;;;;;18.69;49.90;101617.34;5009146;28;20207;-59
2023/01/06 01:28:12;;;;;;;2.20;1.83;;;;;;;18.68;49.87;101617.44;5026744;28;20029;-59
2023/01/06 01:30:37;;;;;;;3.42;2.40;;;;;;;18.68;50.17;101626.38;5026508;28;20116;-58
2023/01/06 01:33:03;;;;;;;3.47;1.90;;;;;;;18.67;50.14;101610.38;5026196;28;20026;-59
2023/01/06 01:35:28;;;;;;;3.83;1.98;;;;;;;18.67;50.12;101602.28;5026176;28;20029;-56
2023/01/06 01:37:53;;;;;;;3.17;2.10;;;;;;;18.62;49.84;101591.97;5026430;28;20049;-58
2023/01/06 01:40:18;;;;;;;3.28;2.15;;;;;;;18.67;50.19;101599.59;5025927;28;20037;-59
2023/01/06 01:42:43;;;;;;;4.40;2.20;;;;;;;18.66;50.15;101597.91;5026375;28;20068;-58
2023/01/06 01:45:25;;;;;;;4.05;2.30;;;;;;;18.65;49.91;101602.47;5026382;28;20649;-58
2023/01/06 01:48:09;;;;;;;4.53;2.15;;;;;;;18.65;50.01;101598.91;5008550;28;20017;-58
2023/01/06 01:50:39;;;;;;;4.50;2.00;;;;;;;18.65;49.83;101597.06;5026177;28;20034;-59
2023/01/06 01:53:09;;;;;;;3.60;1.80;;;;;;;18.64;50.27;101583.72;5026399;28;20022;-59
2023/01/06 01:55:36;;;;;;;3.20;2.10;;;;;;;18.62;50.28;101583.91;5026137;28;20049;-58
2023/01/06 01:58:05;;;;;;;4.20;2.10;;;;;;;18.62;49.91;101581.19;5026260;28;20033;-58
2023/01/06 02:00:30;;;;;;;3.05;2.03;;;;;;;18.62;49.88;101586.59;5025752;28;20050;-59
2023/01/06 02:02:56;;;;;;;5.30;2.05;;;;;;;18.61;49.85;101582.22;5026168;28;20080;-59
2023/01/06 02:05:23;;;;;;;3.25;1.88;;;;;;;18.60;50.11;101582.34;5025910;28;20525;-58
2023/01/06 02:07:49;;;;;;;4.53;2.20;;;;;;;18.60;49.99;101580.50;5024290;28;20022;-58
2023/01/06 02:10:17;;;;;;;4.97;2.10;;;;;;;18.61;49.80;101584.06;5025472;28;20024;-59
2023/01/06 02:12:45;;;;;;;2.80;1.85;;;;;;;18.60;49.79;101587.72;5025829;28;20030;-57
2023/01/06 02:15:18;;;;;;;2.73;1.87;;;;;;;18.60;50.05;101591.25;5008607;28;20080;-59
2023/01/06 02:18:07;;;;;;;4.28;2.30;;;;;;;18.59;49.85;101586.03;5025854;28;20125;-58
2023/01/06 02:20:54;;;;;;;3.05;2.10;;;;;;;18.58;49.89;101574.41;5012682;28;20040;-59
2023/01/06 02:23:54;;;;;;;2.97;2.10;;;;;;;18.58;49.86;101587.03;5007447;28;20053;-59
2023/01/06 02:26:37;;;;;;;4.22;2.35;;;;;;;18.57;49.92;101569.19;5025669;28;20026;-59
2023/01/06 02:29:21;;;;;;;4.13;2.10;;;;;;;18.56;49.90;101570.16;5025616;28;20060;-59
2023/01/06 02:32:05;;;;;;;3.10;1.75;;;;;;;18.55;50.02;101565.78;5024548;28;20029;-58
2023/01/06 02:34:42;;;;;;;3.80;1.92;;;;;;;18.54;50.02;101548.78;5024989;28;20030;-59
2023/01/06 02:37:29;;;;;;;3.88;1.95;;;;;;;18.54;49.82;101547.94;5007380;28;20070;-58
2023/01/06 02:40:13;;;;;;;3.05;2.30;;;;;;;18.54;49.88;101547.94;5025113;28;20026;-58
2023/01/06 02:42:47;;;;;;;4.93;2.28;;;;;;;18.53;50.06;101540.88;5007797;28;20033;-59
2023/01/06 02:45:25;;;;;;;2.88;1.95;;;;;;;18.52;49.88;101529.25;5007530;28;20032;-57
2023/01/06 02:48:11;;;;;;;2.45;1.88;;;;;;;18.44;50.18;101523.78;5007904;28;20026;-59
2023/01/06 02:50:42;;;;;;;2.58;1.65;;;;;;;18.51;49.77;101535.63;5007869;28;20033;-59
2023/01/06 02:53:21;;;;;;;2.38;1.58;;;;;;;18.51;49.83;101529.38;5007484;28;20040;-59
2023/01/06 02:55:48;;;;;;;2.25;1.55;;;;;;;18.50;50.12;101531.22;5024846;28;20032;-59
2023/01/06 02:58:30;;;;;;;3.00;1.83;;;;;;;18.49;50.04;101519.63;5025424;28;20037;-58
2023/01/06 03:01:00;;;;;;;2.90;1.98;;;;;;;18.48;49.84;101528.69;5007509;28;20054;-59
2023/01/06 03:03:28;;;;;;;2.83;1.67;;;;;;;18.49;50.08;101529.56;5007551;28;20053;-59
2023/01/06 03:05:57;;;;;;;3.78;1.40;;;;;;;18.47;49.66;101528.84;5007133;28;20033;-59
2023/01/06 03:08:27;;;;;;;3.55;1.77;;;;;;;18.48;49.91;101531.41;5007669;28;20152;-59
2023/01/06 03:10:54;;;;;;;2.85;1.60;;;;;;;18.45;50.09;101523.59;5003928;28;20403;-58
2023/01/06 03:13:28;;;;;;;2.80;1.70;;;;;;;18.46;49.64;101513.69;4987642;28;20026;-58
2023/01/06 03:15:54;;;;;;;2.40;1.90;;;;;;;18.46;49.88;101500.22;5004137;28;20032;-58
2023/01/06 03:18:19;;;;;;;3.22;1.80;;;;;;;18.45;49.86;101509.31;5007337;28;20030;-58
2023/01/06 03:20:46;;;;;;;2.28;1.75;;;;;;;18.40;49.76;101496.28;5007085;28;20034;-59
2023/01/06 03:23:12;;;;;;;1.95;1.63;;;;;;;18.44;49.87;101508.47;5007423;28;20081;-59
2023/01/06 03:25:37;;;;;;;2.28;1.50;;;;;;;18.44;49.82;101504.94;5024585;28;20033;-58
2023/01/06 03:28:03;;;;;;;2.65;1.55;;;;;;;18.43;50.01;101498.66;5024777;28;20036;-57
2023/01/06 03:30:38;;;;;;;3.17;1.60;;;;;;;18.42;49.90;101499.66;5024599;28;20026;-59
2023/01/06 03:33:35;;;;;;;2.50;1.73;;;;;;;18.42;49.69;101488.06;5006887;28;20021;-54
2023/01/06 03:36:07;;;;;;;1.90;1.50;;;;;;;18.42;49.76;101485.38;5005625;28;20073;-56
2023/01/06 03:38:40;;;;;;;1.83;1.40;;;;;;;18.41;49.84;101489.06;5024685;28;20040;-57
2023/01/06 03:41:17;;;;;;;3.25;1.65;;;;;;;18.40;49.78;101490.91;5024566;28;20033;-58
2023/01/06 03:43:42;;;;;;;2.60;1.40;;;;;;;18.39;49.68;101481.16;5010152;28;20101;-59
2023/01/06 03:46:24;;;;;;;2.80;1.50;;;;;;;18.38;50.01;101484.81;5028626;28;20026;-58
2023/01/06 03:48:54;;;;;;;3.13;1.42;;;;;;;18.37;49.72;101469.66;5011132;28;20018;-58
2023/01/06 03:51:27;;;;;;;2.10;1.40;;;;;;;18.38;49.74;101465.13;5010934;28;20049;-59
2023/01/06 03:54:01;;;;;;;2.40;1.63;;;;;;;18.37;49.73;101458.91;5010469;28;20305;-57
2023/01/06 03:57:02;;;;;;;2.35;1.70;;;;;;;18.36;50.04;101457.22;5028466;28;20030;-56
2023/01/06 03:59:29;;;;;;;1.83;1.50;;;;;;;18.35;49.95;101451.97;4997820;28;20034;-59
2023/01/06 04:01:55;;;;;;;2.25;1.27;;;;;;;18.35;50.01;101458.22;5011031;28;20104;-58
2023/01/06 04:04:21;;;;;;;1.70;1.42;;;;;;;18.34;49.96;101456.50;5027824;28;20018;-59
2023/01/06 04:06:46;;;;;;;2.22;1.55;;;;;;;18.33;50.05;101444.06;5010197;28;20026;-58
2023/01/06 04:09:11;;;;;;;2.55;1.70;;;;;;;18.32;49.89;101447.75;5022135;28;20026;-58
2023/01/06 04:14:22;;;;;;;1.92;1.52;;;;;;;18.33;50.07;101437.81;4968261;28;20050;-59
2023/01/06 04:16:47;;;;;;;3.03;1.65;;;;;;;18.31;49.98;101432.59;5008358;28;20036;-56
2023/01/06 04:19:13;;;;;;;1.92;1.73;;;;;;;18.29;49.67;101420.28;5017685;28;20049;-58
2023/01/06 04:21:38;;;;;;;2.20;1.40;;;;;;;18.31;49.75;101419.13;5027890;28;20052;-58
2023/01/06 04:24:04;;;;;;;2.90;1.85;;;;;;;18.31;49.97;101412.88;5027553;28;20026;-58
2023/01/06 04:26:29;;;;;;;1.83;1.27;;;;;;;18.30;49.91;101419.28;5027909;28;20080;-58
2023/01/06 04:28:54;;;;;;;2.45;1.70;;;;;;;18.30;49.69;101414.72;5027914;28;20025;-58
2023/01/06 04:31:20;;;;;;;1.67;1.30;;;;;;;18.29;49.71;101391.50;5027831;28;20041;-59
2023/01/06 04:33:45;;;;;;;1.92;1.35;;;;;;;18.29;49.94;101393.34;5026801;28;20078;-56
2023/01/06 04:36:10;;;;;;;1.27;1.10;;;;;;;18.29;49.64;101378.06;5027707;28;20053;-59
2023/01/06 04:38:36;;;;;;;2.97;1.52;;;;;;;18.30;50.11;101370.81;5027767;28;20076;-56
2023/01/06 04:41:01;;;;;;;1.98;1.40;;;;;;;18.28;50.06;101384.44;5027330;28;20032;-58
2023/01/06 04:43:26;;;;;;;2.95;1.77;;;;;;;18.29;49.71;101390.66;5027362;28;20018;-58
2023/01/06 04:45:52;;;;;;;2.63;1.48;;;;;;;18.28;49.85;101381.75;5027471;28;20072;-58
2023/01/06 04:48:17;;;;;;;1.98;1.48;;;;;;;18.27;49.85;101372.00;5010047;28;20040;-58
2023/01/06 04:50:42;;;;;;;2.80;1.80;;;;;;;18.28;49.78;101354.84;5027113;28;20025;-55
2023/01/06 04:53:09;;;;;;;2.08;1.40;;;;;;;18.27;50.00;101363.91;5027354;28;20037;-59
2023/01/06 04:55:37;;;;;;;2.17;1.30;;;;;;;18.26;49.61;101361.34;5008472;28;20022;-59
2023/01/06 04:58:02;;;;;;;1.27;1.17;;;;;;;18.26;49.92;101367.59;5027450;28;20463;-59
2023/01/06 05:00:27;;;;;;;1.98;1.58;;;;;;;18.24;49.97;101358.84;5026790;28;20044;-59
2023/01/06 05:02:53;;;;;;;2.00;1.33;;;;;;;18.27;49.98;101357.69;5026912;28;20048;-57
2023/01/06 05:05:18;;;;;;;2.13;1.40;;;;;;;18.26;49.99;101350.59;5027076;28;20034;-58
2023/01/06 05:07:43;;;;;;;2.22;1.30;;;;;;;18.22;50.20;101352.75;5026927;28;20789;-59
2023/01/06 05:10:09;;;;;;;3.30;1.52;;;;;;;18.26;49.85;101354.13;5026706;28;20032;-58
2023/01/06 05:12:35;;;;;;;1.65;1.45;;;;;;;18.25;49.84;101357.81;5027165;28;20032;-58
2023/01/06 05:15:01;;;;;;;2.15;1.38;;;;;;;18.26;50.07;101364.88;5026818;28;20029;-57
2023/01/06 05:17:26;;;;;;;1.98;1.40;;;;;;;18.24;49.94;101351.59;5026919;28;20030;-58
2023/01/06 05:19:52;;;;;;;1.42;1.20;;;;;;;18.25;49.84;101344.38;5026456;28;20032;-58
2023/01/06 05:22:17;;;;;;;2.22;1.23;;;;;;;18.19;49.86;101334.22;5026771;28;20025;-58
2023/01/06 05:24:42;;;;;;;2.47;1.33;;;;;;;18.27;50.11;101349.63;5026818;28;20018;-58
2023/01/06 05:27:08;;;;;;;2.83;1.60;;;;;;;18.27;49.88;101349.63;5026652;28;20038;-59
2023/01/06 05:29:33;;;;;;;2.70;1.52;;;;;;;18.27;49.98;101349.63;5026585;28;20041;-57
2023/01/06 05:31:59;;;;;;;1.80;1.30;;;;;;;18.26;50.12;101356.81;5024545;28;20040;-58
2023/01/06 05:34:24;;;;;;;1.85;1.10;;;;;;;18.28;50.10;101337.84;5025657;28;20022;-57
2023/01/06 05:36:49;;;;;;;2.20;1.08;;;;;;;18.28;49.78;101344.06;5022810;28;20053;-58
2023/01/06 05:39:15;;;;;;;1.70;1.30;;;;;;;18.26;49.82;101332.59;5022495;28;20026;-58
2023/01/06 05:41:40;;;;;;;3.17;1.73;;;;;;;18.29;50.18;101343.06;5025596;28;20452;-58
2023/01/06 05:44:05;;;;;;;2.03;1.15;;;;;;;18.24;50.08;101335.44;5023095;28;20044;-58
2023/01/06 05:46:31;;;;;;;2.72;1.38;;;;;;;18.30;49.99;101328.59;5026081;28;20037;-57
2023/01/06 05:48:58;;;;;;;1.48;1.20;;;;;;;18.32;50.22;101332.00;5026178;28;20050;-56
2023/01/06 05:51:23;;;;;;;1.50;1.20;;;;;;;18.33;49.94;101335.53;5026015;28;20025;-56
2023/01/06 05:53:49;;;;;;;1.52;1.30;;;;;;;18.34;50.26;101332.66;5025689;28;20086;-58
2023/01/06 05:56:16;;;;;;;1.10;1.00;;;;;;;18.33;50.14;101322.91;5025436;28;20498;-58
2023/01/06 05:58:46;;;;;;;1.90;1.05;;;;;;;18.34;50.27;101335.38;5025801;28;20022;-58
2023/01/06 06:01:21;;;;;;;1.80;1.10;;;;;;;18.35;50.27;101338.91;5023386;28;20050;-56
2023/01/06 06:03:47;;;;;;;1.10;1.00;;;;;;;18.35;50.17;101337.06;5025051;28;20022;-56
2023/01/06 06:06:12;;;;;;;1.75;1.10;;;;;;;18.36;50.01;101341.47;5024847;28;20032;-58
2023/01/06 06:08:37;;;;;;;2.95;1.20;;;;;;;18.35;50.53;101347.84;5023224;28;20030;-58
2023/01/06 06:11:04;;;;;;;1.90;1.20;;;;;;;18.36;50.19;101338.75;5022583;28;20030;-58
2023/01/06 06:13:29;;;;;;;1.30;1.17;;;;;;;18.37;50.40;101329.69;5025021;28;20052;-58
2023/01/06 06:16:14;;;;;;;3.17;1.35;;;;;;;18.37;50.61;101328.84;5025637;28;20014;-58
2023/01/06 06:18:43;;;;;;;1.00;0.90;;;;;;;18.35;50.41;101323.63;5024056;28;20028;-58
2023/01/06 06:21:13;;;;;;;1.30;1.10;;;;;;;18.38;50.61;101328.66;5024888;28;20049;-57
2023/01/06 06:23:39;;;;;;;1.98;1.30;;;;;;;18.40;50.30;101328.53;5025068;28;20056;-58
2023/01/06 06:26:04;;;;;;;2.25;1.05;;;;;;;18.40;50.52;101328.53;5007492;28;20089;-58
2023/01/06 06:28:30;;;;;;;1.55;1.10;;;;;;;18.41;50.64;101322.13;5024933;28;20475;-58
2023/01/06 06:31:03;;;;;;;1.33;1.00;;;;;;;18.41;50.46;101324.84;5024767;28;20485;-58
2023/01/06 06:33:28;;;;;;;2.67;1.02;;;;;;;18.42;50.51;101331.91;5025161;28;20030;-56
2023/01/06 06:35:57;;;;;;;2.38;1.10;;;;;;;18.42;50.65;101337.28;5024578;28;20104;-58
2023/01/06 06:38:23;;;;;;;2.08;1.05;;;;;;;18.42;50.49;101327.34;5025408;28;20033;-58
2023/01/06 06:40:48;;;;;;;1.33;1.10;;;;;;;18.42;50.35;101321.13;5024574;28;20030;-58
2023/01/06 06:43:13;;;;;;;5.00;1.10;;;;;;;18.42;50.51;101330.06;5007275;28;20038;-58
2023/01/06 06:45:38;;;;;;;1.42;1.02;;;;;;;18.43;50.82;101326.34;5024760;28;20049;-58
2023/01/06 06:48:04;;;;;;;2.08;1.23;;;;;;;18.43;50.55;101320.13;5024705;28;20037;-59
2023/01/06 06:50:29;;;;;;;2.05;1.10;;;;;;;18.43;50.51;101320.13;5024493;28;20033;-57
2023/01/06 06:52:55;;;;;;;1.63;0.93;;;;;;;18.44;50.55;101324.53;5024826;28;20096;-56
2023/01/06 06:55:20;;;;;;;1.73;0.98;;;;;;;18.44;50.61;101330.75;5024591;28;20108;-58
2023/01/06 06:57:45;;;;;;;1.05;0.95;;;;;;;18.44;50.33;101321.84;5024696;28;20077;-56
2023/01/06 07:00:11;;;;;;;2.22;1.15;;;;;;;18.46;50.40;101331.44;5024345;28;20029;-58
2023/01/06 07:02:36;;;;;;;1.90;1.10;;;;;;;18.46;50.76;101322.50;5024737;28;20529;-58
2023/01/06 07:05:02;;;;;;;1.25;1.15;;;;;;;18.46;50.69;101328.75;5021664;28;20136;-58
2023/01/06 07:07:27;;;;;;;1.42;1.10;;;;;;;18.47;50.27;101333.13;5024714;28;20022;-57
2023/01/06 07:09:52;;;;;;;2.33;1.25;;;;;;;18.48;50.76;101332.13;5022757;28;20018;-58
2023/01/06 07:12:18;;;;;;;2.05;1.10;;;;;;;18.47;50.47;101329.59;5024502;28;20026;-57
2023/01/06 07:14:43;;;;;;;2.03;0.90;;;;;;;18.49;50.43;101331.13;5024502;28;20030;-58
2023/01/06 07:17:08;;;;;;;1.63;1.00;;;;;;;18.50;50.68;101329.28;5023890;28;20079;-56
2023/01/06 07:19:33;;;;;;;0.85;0.80;;;;;;;18.50;50.68;101337.34;5024382;28;20026;-57
2023/01/06 07:21:59;;;;;;;1.58;1.00;;;;;;;18.51;50.40;101332.81;5024268;28;20093;-57
2023/01/06 07:24:24;;;;;;;0.93;0.82;;;;;;;18.51;50.78;101330.13;5024420;28;20040;-58
2023/01/06 07:26:49;;;;;;;2.15;1.13;;;;;;;18.52;50.69;101331.81;5024222;28;20026;-58
2023/01/06 07:29:14;;;;;;;1.95;1.17;;;;;;;18.52;50.69;101343.44;5024278;28;20037;-57
2023/01/06 07:31:40;;;;;;;1.58;1.35;;;;;;;18.53;50.70;101353.22;5024186;28;20082;-59
2023/01/06 07:34:05;;;;;;;1.27;0.90;;;;;;;18.53;50.69;101350.53;5024149;28;20053;-58
2023/01/06 07:36:30;;;;;;;1.63;1.10;;;;;;;18.53;50.64;101357.75;5024391;28;20049;-60
2023/01/06 07:38:55;;;;;;;3.17;1.00;;;;;;;18.55;50.67;101358.44;5023874;28;20029;-58
2023/01/06 07:41:21;;;;;;;1.02;0.82;;;;;;;18.58;50.39;101360.81;5024114;28;20522;-59
2023/01/06 07:43:46;;;;;;;2.05;0.90;;;;;;;18.58;50.58;101366.22;5024317;28;20025;-58
2023/01/06 07:46:11;;;;;;;1.08;0.90;;;;;;;18.60;50.24;101372.28;5024218;28;20061;-58
2023/01/06 07:48:36;;;;;;;1.02;0.90;;;;;;;18.60;50.69;101367.72;5024049;28;20026;-58
2023/01/06 07:51:02;;;;;;;1.23;0.82;;;;;;;18.62;50.25;101375.66;5023871;28;20026;-59
2023/01/06 07:53:27;;;;;;;2.45;1.23;;;;;;;18.60;50.43;101374.97;5024158;28;20034;-58
2023/01/06 07:55:53;;;;;;;0.70;0.70;;;;;;;18.62;50.15;101383.75;5023951;28;20033;-58
2023/01/06 07:58:19;;;;;;;1.05;0.80;;;;;;;18.57;50.32;101378.84;5024180;28;20030;-58
2023/01/06 08:00:44;;;;;;;3.53;1.00;;;;;;;18.63;50.08;101390.81;5023652;28;20026;-59
2023/01/06 08:03:13;;;;;;;3.22;0.90;;;;;;;18.61;50.20;101390.16;5023941;28;20398;-57
2023/01/06 08:05:40;;;;;;;1.90;0.95;;;;;;;18.63;50.14;101402.44;5023769;28;20474;-59
2023/01/06 08:08:06;;;;;;;1.60;1.00;;;;;;;18.64;50.57;101408.66;5006794;28;20086;-59
2023/01/06 08:10:31;;;;;;;1.05;1.00;;;;;;;18.66;50.36;101420.16;5015380;28;20030;-57
2023/01/06 08:12:56;;;;;;;1.25;0.90;;;;;;;18.67;50.19;101428.06;5017642;28;20066;-60
2023/01/06 08:15:21;;;;;;;1.45;0.90;;;;;;;18.67;50.27;101428.06;5023360;28;20053;-60
2023/01/06 08:17:51;;;;;;;1.92;1.08;;;;;;;18.68;50.32;101428.91;5023954;28;20068;-60
2023/01/06 08:20:16;;;;;;;1.17;1.00;;;;;;;18.68;50.00;101439.69;5022105;28;20054;-56
2023/01/06 08:22:41;;;;;;;1.20;0.90;;;;;;;18.71;50.14;101450.19;5010769;28;20053;-57
2023/01/06 08:25:07;;;;;;;0.70;0.70;;;;;;;18.72;49.91;101463.50;5022648;28;20022;-58
2023/01/06 08:27:32;;;;;;;1.38;0.80;;;;;;;18.73;50.37;101467.91;5023199;28;20045;-53
2023/01/06 08:29:58;;;;;;;1.30;0.90;;;;;;;18.74;50.04;101471.44;5024405;28;20041;-54
2023/01/06 08:32:23;;;;;;;0.82;0.82;;;;;;;18.76;50.15;101473.97;5026891;28;20909;-53
2023/01/06 08:34:48;;;;;;;2.05;0.95;;;;;;;18.76;49.93;101477.50;5026798;28;20064;-55
2023/01/06 08:37:14;;;;;;;1.23;0.70;;;;;;;18.76;50.00;101482.88;5026094;28;20136;-55
2023/01/06 08:39:39;;;;;;;1.42;0.70;;;;;;;18.76;50.17;101490.13;5026387;28;20038;-56
2023/01/06 08:42:04;;;;;;;1.23;1.00;;;;;;;18.77;49.70;101483.72;5026130;28;20029;-55
2023/01/06 08:44:30;;;;;;;0.80;0.80;;;;;;;18.78;49.80;101485.44;5003128;28;20382;-55
2023/01/06 08:46:55;;;;;;;1.00;0.70;;;;;;;18.78;49.72;101486.28;5026239;28;20025;-54
2023/01/06 08:49:20;;;;;;;2.60;0.90;;;;;;;18.78;50.07;101496.22;5026875;28;20366;-58
2023/01/06 08:51:45;;;;;;;1.20;0.90;;;;;;;18.78;49.79;101505.16;5018313;28;20026;-51
2023/01/06 08:54:11;;;;;;;1.38;1.00;;;;;;;18.78;50.07;101507.00;5025812;28;20033;-55
2023/01/06 08:56:38;;;;;;;1.85;1.23;;;;;;;18.77;50.07;101516.06;5026344;28;20109;-58
2023/01/06 08:59:04;;;;;;;1.05;0.80;;;;;;;18.76;49.82;101520.59;5026389;28;20037;-53
2023/01/06 09:01:34;;;;;;;1.48;0.80;;;;;;;18.79;49.78;101525.69;5026421;28;20081;-52
2023/01/06 09:04:02;;;;;;;0.80;0.80;;;;;;;18.79;49.76;101528.38;5026350;28;20029;-55
2023/01/06 09:06:27;;;;;;;1.08;0.98;;;;;;;18.80;49.95;101530.06;5026256;28;20485;-57
2023/01/06 09:08:54;;;;;;;1.92;1.10;;;;;;;18.83;49.96;101524.38;5026463;28;20034;-53
2023/01/06 09:11:20;;;;;;;1.00;0.90;;;;;;;18.86;49.77;101534.88;5017739;28;20073;-55
2023/01/06 09:13:45;;;;;;;1.92;0.90;;;;;;;18.89;49.81;101529.16;5025589;28;20048;-52
2023/01/06 09:16:11;;;;;;;1.98;0.95;;;;;;;18.91;50.01;101537.09;5026261;28;20026;-57
2023/01/06 09:18:37;;;;;;;2.55;0.80;;;;;;;18.92;49.84;101533.41;5025520;28;20029;-56
2023/01/06 09:21:03;;;;;;;0.70;0.60;;;;;;;18.95;49.87;101543.88;5026098;28;20044;-54
2023/01/06 09:23:29;;;;;;;1.27;1.00;;;;;;;18.95;49.54;101542.03;5025679;28;20060;-59
2023/01/06 09:25:55;;;;;;;1.00;0.73;;;;;;;18.99;49.51;101545.28;5025833;28;20671;-54
2023/01/06 09:28:20;;;;;;;2.50;0.98;;;;;;;18.97;49.38;101541.88;5025921;28;20030;-55
2023/01/06 09:30:47;;;;;;;1.40;0.88;;;;;;;19.00;49.40;101548.81;5025693;28;20057;-60
2023/01/06 09:33:12;;;;;;;2.65;0.90;;;;;;;19.01;49.49;101543.25;5025614;28;20050;-53
2023/01/06 09:35:38;;;;;;;1.33;0.95;;;;;;;19.02;49.49;101546.78;5024862;28;20034;-58
2023/01/06 09:38:03;;;;;;;1.35;0.80;;;;;;;19.02;49.39;101550.31;5022826;28;20034;-58
2023/01/06 09:40:44;;;;;;;2.20;1.00;;;;;;;18.87;49.36;101531.16;5024635;28;20390;-58
2023/01/06 09:43:36;;;;;;;0.85;0.85;;;;;;;19.03;49.24;101557.44;5019320;28;20525;-59
2023/01/06 09:46:02;;;;;;;2.47;1.23;;;;;;;19.03;49.52;101559.25;5004548;28;20064;-51
2023/01/06 09:48:32;;;;;;;0.82;0.70;;;;;;;19.05;49.15;101570.75;5008053;28;20068;-56
2023/01/06 09:51:03;;;;;;;1.58;0.73;;;;;;;19.06;49.15;101573.28;5007860;28;20037;-57
2023/01/06 09:53:31;;;;;;;0.95;0.68;;;;;;;19.07;49.02;101587.59;5025231;28;20034;-57
2023/01/06 09:56:02;;;;;;;2.03;0.60;;;;;;;19.07;49.30;101584.91;5025322;28;20022;-57
2023/01/06 09:58:31;;;;;;;1.08;0.80;;;;;;;19.08;49.03;101586.63;5007489;28;20026;-58
2023/01/06 10:00:56;;;;;;;;;;;;;;;19.09;49.09;101585.63;5025448;28;20021;-60
2023/01/06 10:03:24;;;;;;;1.48;0.70;;;;;;;19.06;48.98;101581.38;5025049;28;19936;-52
2023/01/06 10:05:55;;;;;;;0.90;0.70;;;;;;;19.10;49.18;101588.16;5001436;28;20072;-59
2023/01/06 10:08:27;;;;;;;1.33;0.80;;;;;;;19.10;49.13;101593.53;5024961;28;20038;-58
2023/01/06 10:11:06;;;;;;;1.42;0.75;;;;;;;19.10;49.10;101595.38;5007229;28;20041;-56
2023/01/06 10:14:05;;;;;;;2.08;0.80;;;;;;;19.11;49.00;101597.06;5024596;28;20034;-57
2023/01/06 10:16:41;;;;;;;;;;;;;;;19.11;49.06;101605.16;5025081;28;20049;-57
2023/01/06 10:19:29;;;;;;;2.65;1.00;;;;;;;19.11;48.97;101603.31;5007500;28;19920;-60
2023/01/06 10:22:03;;;;;;;1.55;1.00;;;;;;;19.12;48.83;101601.50;5007062;28;20073;-57
2023/01/06 10:24:47;;;;;;;3.30;1.13;;;;;;;19.13;48.94;101611.25;5007592;28;20041;-58
2023/01/06 10:27:26;;;;;;;1.92;0.70;;;;;;;19.14;48.79;101619.19;5018769;28;20025;-59
2023/01/06 10:29:51;;;;;;;1.13;0.75;;;;;;;19.15;48.87;101623.56;5009185;28;20033;-58
2023/01/06 10:32:17;;;;;;;4.30;0.90;;;;;;;19.15;48.61;101626.25;5024501;28;20033;-59
2023/01/06 10:34:45;;;;;;;1.20;0.60;;;;;;;19.16;48.91;101622.59;5021014;28;20034;-59
2023/01/06 10:37:18;;;;;;;1.30;0.77;;;;;;;19.15;48.62;101620.88;5007312;28;20049;-60
2023/01/06 10:39:47;;;;;;;1.42;0.70;;;;;;;19.16;48.33;101614.50;5007452;28;20119;-60
2023/01/06 10:45:45;;;;;;;2.67;0.80;;;;;;;19.17;48.40;101609.97;4933735;29;20084;-60
2023/01/06 10:48:25;;;;;;;1.38;0.75;;;;;;;19.17;48.69;101613.50;4945236;29;20036;-59
2023/01/06 10:50:50;;;;;;;0.82;0.65;;;;;;;19.16;48.58;101611.81;4944503;29;20080;-58
2023/01/06 10:53:16;;;;;;;1.40;0.85;;;;;;;19.12;48.35;101602.34;4933053;28;20095;-59
2023/01/06 10:55:47;;;;;;;1.48;0.75;;;;;;;19.17;48.28;101613.50;4936725;29;20039;-59
2023/01/06 10:58:43;;;;;;;3.47;1.10;;;;;;;19.19;48.32;101616.88;4934379;29;20099;-60
2023/01/06 11:01:21;;;;;;;1.50;1.05;;;;;;;19.18;48.46;101628.66;4909535;29;20063;-59
2023/01/06 11:04:06;;;;;;;2.17;1.10;;;;;;;19.20;48.68;101620.44;4935415;29;20058;-59
2023/01/06 11:06:31;;;;;;;2.55;1.25;;;;;;;19.19;48.42;101618.72;4939457;29;20044;-60
2023/01/06 11:08:57;;;;;;;2.05;0.75;;;;;;;19.21;48.63;101619.44;4928995;29;20127;-60
2023/01/06 11:11:23;;;;;;;1.48;0.70;;;;;;;19.15;48.46;101604.69;4936046;29;20161;-59
2023/01/06 11:13:52;;;;;;;1.02;0.70;;;;;;;19.19;48.56;101616.03;4934969;29;20046;-60
2023/01/06 11:16:20;;;;;;;3.72;1.05;;;;;;;19.26;48.61;101622.50;4925641;29;20034;-59
2023/01/06 11:18:56;;;;;;;2.88;0.70;;;;;;;19.27;48.77;101621.50;4957232;28;20085;-60
2023/01/06 11:21:21;;;;;;;1.63;0.80;;;;;;;19.28;48.64;101616.94;5003974;28;20489;-59
2023/01/06 11:23:47;;;;;;;1.75;0.88;;;;;;;19.29;48.47;101613.28;5006422;28;20050;-59
2023/01/06 11:26:18;;;;;;;3.20;1.20;;;;;;;19.30;48.44;101620.34;5023173;28;20029;-59
2023/01/06 11:28:46;;;;;;;1.25;0.98;;;;;;;19.30;48.40;101614.97;5023434;28;20032;-59
2023/01/06 11:31:14;;;;;;;2.20;0.85;;;;;;;19.30;48.44;101609.56;5023941;28;20026;-59
2023/01/06 11:33:55;;;;;;;2.30;1.27;;;;;;;19.29;48.74;101615.97;5023118;28;20080;-59
2023/01/06 11:36:22;;;;;;;1.40;0.75;;;;;;;19.29;48.50;101610.59;5006071;28;20053;-55
2023/01/06 11:38:59;;;;;;;2.63;0.98;;;;;;;19.31;48.73;101616.66;5023664;28;20467;-52
2023/01/06 11:41:28;;;;;;;3.67;0.90;;;;;;;19.28;48.80;101609.72;5005772;28;20030;-58
2023/01/06 11:43:55;;;;;;;1.60;1.15;;;;;;;19.22;48.54;101608.47;5003816;28;20144;-57